Time;durP1;ratioP1;P1;durP2;ratioP2;P2;SDS_P1;SDS_P2;PMS_P1;PMS_P2;Temp;Humidity;BMP_temperature;BMP_pressure;BME280_temperature;BME280_humidity;BME280_pressure;Samples;Min_cycle;Max_cycle;Signal;HPM_P1;HPM_P2
2022/06/28 00:02:01;;;;;;;5.47;1.20;;;10.10;99.90;;;;;;4981293;28;20464;-76
2022/06/28 00:04:27;;;;;;;2.28;0.90;;;10.10;99.90;;;;;;4986777;28;20022;-76
2022/06/28 00:06:54;;;;;;;4.75;1.25;;;10.10;99.90;;;;;;5000277;28;20022;-76
2022/06/28 00:09:20;;;;;;;4.72;1.20;;;10.00;99.90;;;;;;5005438;28;20486;-76
2022/06/28 00:11:46;;;;;;;1.83;1.00;;;9.90;99.90;;;;;;5002184;28;20371;-76
2022/06/28 00:16:57;;;;;;;4.13;0.95;;;9.90;99.90;;;;;;5004578;28;20148;-76
2022/06/28 00:19:23;;;;;;;4.70;1.10;;;9.80;99.90;;;;;;4982591;28;20089;-77
2022/06/28 00:21:48;;;;;;;5.45;1.85;;;9.80;99.90;;;;;;4985886;28;20022;-77
2022/06/28 00:24:14;;;;;;;7.32;1.73;;;9.80;99.90;;;;;;5004093;28;20109;-76
2022/06/28 00:26:41;;;;;;;6.25;1.83;;;9.70;99.90;;;;;;4999726;28;20442;-76
2022/06/28 00:29:07;;;;;;;3.28;0.98;;;9.70;99.90;;;;;;5009827;28;20030;-76
2022/06/28 00:31:33;;;;;;;5.25;1.08;;;9.70;99.90;;;;;;5003539;28;20026;-76
2022/06/28 00:33:59;;;;;;;4.10;1.58;;;9.70;99.90;;;;;;4999548;28;20137;-76
2022/06/28 00:36:25;;;;;;;3.92;1.88;;;9.80;99.90;;;;;;5003293;28;20025;-78
2022/06/28 00:38:52;;;;;;;3.92;1.10;;;9.90;99.90;;;;;;4993512;28;20029;-76
2022/06/28 00:41:19;;;;;;;5.35;1.05;;;9.90;99.90;;;;;;4982065;28;20026;-76
2022/06/28 00:43:45;;;;;;;3.22;1.02;;;10.00;99.90;;;;;;5004053;28;20030;-76
2022/06/28 00:46:12;;;;;;;2.35;1.30;;;9.90;99.90;;;;;;5002627;28;20022;-76
2022/06/28 00:48:38;;;;;;;4.90;1.70;;;9.90;99.90;;;;;;4999893;28;20475;-76
2022/06/28 00:51:05;;;;;;;4.63;2.05;;;9.80;99.90;;;;;;5004352;28;20041;-78
2022/06/28 00:53:30;;;;;;;8.43;2.33;;;9.80;99.90;;;;;;5001579;28;20127;-76
2022/06/28 00:58:26;;;;;;;11.02;1.55;;;9.80;99.90;;;;;;5023382;28;20068;-78
2022/06/28 01:00:53;;;;;;;3.10;1.17;;;9.60;99.90;;;;;;5022349;28;20021;-77
2022/06/28 01:03:21;;;;;;;12.38;1.70;;;9.60;99.90;;;;;;5013598;28;20461;-78
2022/06/28 01:05:48;;;;;;;3.75;1.00;;;9.50;99.90;;;;;;5019514;28;20069;-77
2022/06/28 01:08:14;;;;;;;1.77;1.13;;;9.40;99.90;;;;;;5013044;28;20021;-77
2022/06/28 01:10:40;;;;;;;4.25;1.13;;;9.40;99.90;;;;;;5023059;28;20033;-77
2022/06/28 01:13:08;;;;;;;4.43;1.02;;;9.40;99.90;;;;;;5019191;28;20034;-78
2022/06/28 01:15:34;;;;;;;4.35;1.10;;;9.30;99.90;;;;;;5023341;28;20555;-78
2022/06/28 01:18:01;;;;;;;4.18;1.95;;;9.30;99.90;;;;;;5022326;28;20037;-77
2022/06/28 01:20:27;;;;;;;7.68;2.22;;;9.30;99.90;;;;;;5008358;28;20033;-78
2022/06/28 01:22:54;;;;;;;3.83;0.98;;;9.30;99.90;;;;;;5023755;28;20021;-75
2022/06/28 01:25:22;;;;;;;3.83;0.80;;;9.30;99.90;;;;;;5021225;28;20116;-75
2022/06/28 01:27:48;;;;;;;6.93;1.33;;;9.20;99.90;;;;;;5025949;28;20476;-75
2022/06/28 01:30:13;;;;;;;5.38;1.27;;;9.20;99.90;;;;;;5019411;28;20022;-75
2022/06/28 01:32:40;;;;;;;3.75;1.08;;;9.20;99.90;;;;;;5021999;28;20079;-75
2022/06/28 01:35:08;;;;;;;4.65;1.50;;;9.20;99.90;;;;;;5022811;28;20025;-75
2022/06/28 01:37:34;;;;;;;2.15;0.82;;;9.20;99.90;;;;;;5018829;28;20021;-77
2022/06/28 01:40:00;;;;;;;5.40;1.58;;;9.10;99.90;;;;;;5022019;28;20025;-77
2022/06/28 01:42:30;;;;;;;1.55;1.00;;;9.10;99.90;;;;;;5021909;28;20084;-77
2022/06/28 01:44:58;;;;;;;4.82;1.00;;;9.00;99.90;;;;;;5018902;28;20069;-77
2022/06/28 01:47:26;;;;;;;3.88;1.10;;;8.90;99.90;;;;;;5019224;28;20022;-76
2022/06/28 01:49:53;;;;;;;3.45;0.95;;;8.90;99.90;;;;;;5021432;28;20087;-77
2022/06/28 01:52:19;;;;;;;4.30;1.17;;;8.90;99.90;;;;;;5012429;28;20025;-76
2022/06/28 01:54:45;;;;;;;6.47;1.33;;;8.90;99.90;;;;;;5019134;28;20072;-77
2022/06/28 01:57:11;;;;;;;3.67;1.38;;;8.90;99.90;;;;;;5013585;23;20716;-76
2022/06/28 01:59:38;;;;;;;2.63;1.02;;;8.90;99.90;;;;;;4990797;28;20057;-76
2022/06/28 02:02:04;;;;;;;5.07;1.35;;;8.90;99.90;;;;;;4990931;28;20029;-76
2022/06/28 02:04:30;;;;;;;6.32;1.55;;;8.90;99.90;;;;;;4973302;28;20046;-76
2022/06/28 02:06:57;;;;;;;3.95;1.30;;;8.90;99.90;;;;;;4991149;28;20026;-76
2022/06/28 02:09:23;;;;;;;5.80;0.90;;;8.90;99.90;;;;;;4991058;28;20026;-75
2022/06/28 02:11:49;;;;;;;4.43;1.10;;;8.80;99.90;;;;;;4990739;28;20031;-76
2022/06/28 02:14:15;;;;;;;4.28;1.10;;;8.80;99.90;;;;;;4990965;28;20027;-76
2022/06/28 02:16:41;;;;;;;6.38;1.60;;;8.80;99.90;;;;;;4991425;28;20599;-76
2022/06/28 02:19:07;;;;;;;2.20;1.10;;;8.80;99.90;;;;;;4990803;28;20479;-76
2022/06/28 02:21:38;;;;;;;2.35;1.00;;;8.80;99.90;;;;;;4990411;28;20038;-76
2022/06/28 02:24:05;;;;;;;3.25;1.02;;;8.70;99.90;;;;;;4990795;28;20038;-76
2022/06/28 02:26:33;;;;;;;3.35;0.85;;;8.60;99.90;;;;;;4983219;28;20026;-76
2022/06/28 02:29:00;;;;;;;4.07;1.02;;;8.60;99.90;;;;;;4977347;28;20145;-76
2022/06/28 02:31:26;;;;;;;2.70;0.80;;;8.50;99.90;;;;;;4995139;28;20084;-76
2022/06/28 02:33:53;;;;;;;2.22;0.85;;;8.50;99.90;;;;;;4994514;28;20538;-75
2022/06/28 02:41:48;;;;;;;2.88;0.70;;;8.50;99.90;;;;;;4994694;28;20096;-78
2022/06/28 02:44:17;;;;;;;2.88;0.90;;;8.40;99.90;;;;;;4977230;28;20507;-78
2022/06/28 02:46:46;;;;;;;3.20;1.20;;;8.30;99.90;;;;;;4994940;28;20529;-78
2022/06/28 02:49:13;;;;;;;3.63;0.90;;;8.30;99.90;;;;;;4994560;28;20022;-75
2022/06/28 02:51:39;;;;;;;4.32;0.90;;;8.30;99.90;;;;;;4994563;28;20018;-77
2022/06/28 02:54:05;;;;;;;6.38;1.33;;;8.30;99.90;;;;;;4994973;28;20033;-77
2022/06/28 02:56:31;;;;;;;1.38;0.60;;;8.30;99.90;;;;;;5004322;22;20058;-76
2022/06/28 02:58:57;;;;;;;3.80;1.20;;;8.30;99.90;;;;;;4979557;28;20042;-76
2022/06/28 03:01:22;;;;;;;5.28;1.30;;;8.20;99.90;;;;;;4975831;28;20085;-76
2022/06/28 03:03:48;;;;;;;7.55;1.45;;;8.20;99.90;;;;;;4973692;28;20043;-76
2022/06/28 03:06:14;;;;;;;2.83;0.90;;;8.30;99.90;;;;;;4975589;28;20033;-76
2022/06/28 03:08:40;;;;;;;10.52;1.70;;;8.40;99.90;;;;;;4975558;28;20055;-76
2022/06/28 03:11:05;;;;;;;2.55;0.90;;;8.50;99.90;;;;;;4975146;28;20042;-76
2022/06/28 03:13:31;;;;;;;3.38;0.98;;;8.60;99.90;;;;;;4975619;28;20038;-76
2022/06/28 03:15:57;;;;;;;2.60;0.75;;;8.60;99.90;;;;;;4975503;28;20504;-77
2022/06/28 03:18:22;;;;;;;2.38;1.05;;;8.60;99.90;;;;;;4975517;28;20070;-76
2022/06/28 03:20:48;;;;;;;4.22;1.75;;;8.70;99.90;;;;;;4975444;28;20031;-76
2022/06/28 03:23:14;;;;;;;8.07;0.95;;;8.80;99.90;;;;;;4975581;28;20037;-76
2022/06/28 03:25:40;;;;;;;1.67;1.20;;;8.80;99.90;;;;;;4975418;28;20057;-76
2022/06/28 03:28:05;;;;;;;3.58;0.90;;;8.90;99.90;;;;;;4975230;28;20101;-76
2022/06/28 03:30:32;;;;;;;3.70;0.93;;;9.00;99.90;;;;;;4977916;28;20117;-76
2022/06/28 03:32:58;;;;;;;3.03;0.90;;;9.20;99.90;;;;;;4975169;28;20089;-76
2022/06/28 03:35:24;;;;;;;3.60;1.27;;;9.20;99.90;;;;;;4975689;28;20023;-76
2022/06/28 03:37:51;;;;;;;2.22;0.88;;;9.30;99.90;;;;;;4974836;28;20027;-76
2022/06/28 03:40:16;;;;;;;6.07;0.98;;;9.40;99.90;;;;;;4974314;28;20157;-76
2022/06/28 03:42:42;;;;;;;3.45;1.48;;;9.40;99.90;;;;;;4974475;28;20576;-77
2022/06/28 03:45:08;;;;;;;3.38;1.02;;;9.40;99.90;;;;;;4974619;28;20113;-77
2022/06/28 03:47:34;;;;;;;2.13;1.05;;;9.50;99.90;;;;;;4974644;28;20549;-76
2022/06/28 03:50:00;;;;;;;4.10;0.95;;;9.70;99.90;;;;;;4974449;28;20031;-77
2022/06/28 03:52:29;;;;;;;3.60;1.63;;;9.80;99.90;;;;;;4974512;28;20027;-77
2022/06/28 03:54:59;;;;;;;2.22;0.90;;;9.70;99.90;;;;;;4974747;28;20023;-77
2022/06/28 03:57:26;;;;;;;5.93;2.25;;;9.80;99.90;;;;;;5022399;23;20034;-78
2022/06/28 03:59:52;;;;;;;1.42;1.08;;;9.80;99.90;;;;;;4995081;28;20029;-78
2022/06/28 04:02:18;;;;;;;4.78;1.15;;;9.90;99.90;;;;;;4992973;28;20067;-78
2022/06/28 04:04:44;;;;;;;3.47;1.05;;;10.00;99.90;;;;;;4993086;28;20065;-78
2022/06/28 04:07:10;;;;;;;3.65;1.10;;;9.90;99.90;;;;;;4992898;28;20049;-78
2022/06/28 04:09:36;;;;;;;1.17;0.95;;;10.00;99.90;;;;;;4993095;28;20098;-77
2022/06/28 04:12:02;;;;;;;1.10;1.00;;;10.00;99.90;;;;;;4993321;28;20531;-77
2022/06/28 04:14:27;;;;;;;2.55;1.10;;;10.00;99.90;;;;;;4992823;28;20027;-77
2022/06/28 04:16:53;;;;;;;3.75;0.90;;;10.00;99.90;;;;;;4992559;28;20506;-77
2022/06/28 04:19:19;;;;;;;5.22;1.20;;;10.00;99.90;;;;;;4993250;28;20018;-77
2022/06/28 04:21:45;;;;;;;0.93;0.60;;;10.10;99.90;;;;;;4992929;28;20018;-77
2022/06/28 04:24:10;;;;;;;3.35;1.00;;;10.20;99.90;;;;;;4992687;28;20039;-77
2022/06/28 04:26:36;;;;;;;4.55;0.90;;;10.20;99.90;;;;;;4992715;28;20026;-77
2022/06/28 04:29:02;;;;;;;6.78;1.52;;;10.20;99.90;;;;;;4994644;28;20109;-77
2022/06/28 04:31:28;;;;;;;2.28;1.00;;;10.30;99.90;;;;;;4992710;28;20173;-77
2022/06/28 04:33:54;;;;;;;5.57;1.75;;;10.30;99.90;;;;;;4992865;28;20077;-77
2022/06/28 04:36:20;;;;;;;2.22;1.05;;;10.30;99.90;;;;;;4991153;28;20018;-77
2022/06/28 04:38:46;;;;;;;4.97;1.25;;;10.30;99.90;;;;;;4992393;28;20018;-77
2022/06/28 04:41:11;;;;;;;1.50;1.08;;;10.30;99.90;;;;;;4991572;28;20026;-77
2022/06/28 04:43:37;;;;;;;4.10;1.10;;;10.30;99.90;;;;;;4992555;28;20027;-77
2022/06/28 04:46:03;;;;;;;2.90;0.90;;;10.30;99.90;;;;;;4992506;28;20022;-77
2022/06/28 04:48:29;;;;;;;0.93;0.57;;;10.40;99.90;;;;;;4992831;28;20061;-77
2022/06/28 04:50:54;;;;;;;0.98;0.73;;;10.40;99.90;;;;;;4991798;28;20019;-77
2022/06/28 04:53:20;;;;;;;3.22;1.08;;;10.50;99.90;;;;;;4992312;28;20026;-77
2022/06/28 04:55:46;;;;;;;3.67;0.70;;;10.50;99.90;;;;;;4992502;28;20026;-77
2022/06/28 04:58:12;;;;;;;4.10;1.33;;;10.60;99.90;;;;;;5016473;22;20097;-76
2022/06/28 05:00:37;;;;;;;1.42;0.68;;;10.60;99.90;;;;;;4976651;28;20512;-76
2022/06/28 05:03:03;;;;;;;4.43;1.10;;;10.70;99.90;;;;;;4973307;28;20038;-76
2022/06/28 05:05:29;;;;;;;3.67;0.85;;;10.70;99.90;;;;;;4955818;28;20037;-76
2022/06/28 05:07:55;;;;;;;7.30;1.27;;;10.80;99.90;;;;;;4972691;28;20019;-76
2022/06/28 05:10:21;;;;;;;1.23;0.88;;;10.90;99.90;;;;;;4973027;28;20611;-76
2022/06/28 05:12:46;;;;;;;7.00;0.88;;;10.90;99.90;;;;;;4971612;28;20024;-76
2022/06/28 05:15:12;;;;;;;1.10;0.63;;;10.90;99.90;;;;;;4973505;28;20512;-76
2022/06/28 05:17:39;;;;;;;5.03;1.05;;;10.90;99.90;;;;;;4973115;28;20161;-76
2022/06/28 05:20:06;;;;;;;6.80;1.35;;;11.00;99.90;;;;;;4979986;28;20034;-76
2022/06/28 05:22:32;;;;;;;3.30;0.80;;;11.10;99.90;;;;;;4973144;28;20035;-76
2022/06/28 05:24:57;;;;;;;6.28;1.00;;;11.20;99.90;;;;;;4973618;28;20491;-76
2022/06/28 05:27:23;;;;;;;4.00;0.57;;;11.30;99.90;;;;;;4972782;28;20050;-76
2022/06/28 05:29:49;;;;;;;3.20;0.90;;;11.50;99.90;;;;;;4973161;28;20111;-76
2022/06/28 05:32:15;;;;;;;6.50;1.58;;;11.70;99.90;;;;;;4972664;28;20034;-76
2022/06/28 05:34:40;;;;;;;10.85;1.15;;;12.00;99.90;;;;;;4973060;28;20031;-76
2022/06/28 05:37:07;;;;;;;4.88;1.13;;;12.30;99.90;;;;;;4972781;28;20037;-76
2022/06/28 05:39:33;;;;;;;1.58;1.17;;;12.60;99.90;;;;;;4955794;28;20082;-76
2022/06/28 05:41:58;;;;;;;11.30;1.35;;;12.80;99.90;;;;;;4972670;28;20475;-76
2022/06/28 05:44:24;;;;;;;4.93;1.02;;;12.90;99.90;;;;;;4972834;28;20035;-76
2022/06/28 05:46:51;;;;;;;7.43;1.05;;;13.00;99.90;;;;;;4972720;28;20027;-76
2022/06/28 05:49:17;;;;;;;4.13;0.88;;;13.20;99.90;;;;;;4972851;28;20042;-76
2022/06/28 05:51:43;;;;;;;6.72;0.85;;;13.50;99.90;;;;;;4972875;28;20388;-76
2022/06/28 05:54:09;;;;;;;2.58;0.50;;;13.70;99.90;;;;;;4972987;28;20078;-76
2022/06/28 05:56:36;;;;;;;5.00;1.05;;;13.80;99.90;;;;;;4995604;23;20026;-78
2022/06/28 05:59:04;;;;;;;5.05;1.02;;;14.00;99.90;;;;;;4973299;28;20480;-78
2022/06/28 06:01:30;;;;;;;5.85;0.93;;;14.10;99.90;;;;;;4954254;28;20022;-78
2022/06/28 06:03:57;;;;;;;1.42;0.60;;;14.20;99.90;;;;;;4971546;28;20030;-78
2022/06/28 06:06:24;;;;;;;2.28;0.80;;;14.30;99.90;;;;;;4971891;28;20046;-78
2022/06/28 06:08:51;;;;;;;4.03;0.70;;;14.30;99.90;;;;;;4972373;28;20026;-78
2022/06/28 06:11:17;;;;;;;2.47;0.90;;;14.30;99.90;;;;;;4972549;28;20018;-78
2022/06/28 06:13:43;;;;;;;5.95;0.93;;;14.30;99.90;;;;;;4978633;28;20023;-79
2022/06/28 06:16:09;;;;;;;7.88;1.30;;;14.40;99.90;;;;;;4972067;28;20030;-77
2022/06/28 06:18:35;;;;;;;6.93;0.73;;;14.50;99.90;;;;;;4972189;28;20062;-78
2022/06/28 06:21:00;;;;;;;3.33;0.68;;;14.60;99.90;;;;;;4972393;28;20027;-78
2022/06/28 06:23:26;;;;;;;3.33;0.50;;;14.80;99.90;;;;;;4972437;28;20042;-78
2022/06/28 06:25:52;;;;;;;2.35;0.35;;;15.00;99.90;;;;;;4972451;28;20054;-79
2022/06/28 06:28:18;;;;;;;3.70;1.17;;;15.30;99.90;;;;;;4971883;28;20093;-78
2022/06/28 06:30:44;;;;;;;4.47;0.82;;;15.60;99.90;;;;;;4971982;28;20547;-78
2022/06/28 06:33:10;;;;;;;1.45;0.63;;;15.90;99.90;;;;;;4971285;28;20041;-78
2022/06/28 06:35:35;;;;;;;3.28;0.70;;;16.10;99.90;;;;;;4971675;28;20472;-77
2022/06/28 06:38:01;;;;;;;8.45;1.35;;;16.30;99.90;;;;;;4971964;28;20098;-77
2022/06/28 06:40:28;;;;;;;4.57;1.33;;;16.30;99.90;;;;;;4953299;28;20037;-77
2022/06/28 06:42:54;;;;;;;5.15;0.82;;;16.40;99.90;;;;;;4970013;28;20058;-77
2022/06/28 06:45:19;;;;;;;6.72;0.73;;;16.40;99.90;;;;;;4971075;28;20050;-78
2022/06/28 06:47:45;;;;;;;5.38;0.50;;;16.60;99.90;;;;;;4972751;28;20023;-77
2022/06/28 06:50:11;;;;;;;7.72;0.55;;;16.60;99.90;;;;;;4971522;28;20604;-78
2022/06/28 06:52:37;;;;;;;1.95;0.40;;;16.80;99.90;;;;;;4971886;28;20103;-78
2022/06/28 06:55:03;;;;;;;2.72;0.60;;;16.80;99.90;;;;;;4971884;28;20136;-78
2022/06/28 06:57:29;;;;;;;3.38;0.70;;;16.80;99.90;;;;;;4978626;23;20047;-76
2022/06/28 06:59:55;;;;;;;3.83;0.47;;;16.70;99.90;;;;;;4972094;28;20034;-76
2022/06/28 07:02:21;;;;;;;4.75;0.68;;;16.70;99.90;;;;;;4972291;28;20113;-76
2022/06/28 07:04:47;;;;;;;5.20;0.40;;;16.70;99.90;;;;;;4971604;28;20073;-76
2022/06/28 07:07:13;;;;;;;3.65;0.70;;;16.60;99.90;;;;;;4971737;28;20058;-76
2022/06/28 07:09:39;;;;;;;6.57;1.48;;;16.60;99.90;;;;;;4972158;28;20078;-76
2022/06/28 07:12:06;;;;;;;1.52;0.50;;;16.70;99.90;;;;;;4972151;28;20464;-76
2022/06/28 07:14:31;;;;;;;3.53;0.50;;;16.70;99.90;;;;;;4974287;28;20122;-76
2022/06/28 07:16:57;;;;;;;3.80;0.80;;;16.80;99.90;;;;;;4974049;28;20150;-75
2022/06/28 07:19:23;;;;;;;2.80;0.82;;;16.90;99.90;;;;;;4973673;28;20114;-76
2022/06/28 07:21:49;;;;;;;4.60;1.20;;;17.00;99.90;;;;;;4957806;28;20030;-76
2022/06/28 07:24:14;;;;;;;2.75;0.47;;;17.20;99.90;;;;;;4975187;28;20042;-76
2022/06/28 07:26:40;;;;;;;2.58;0.65;;;17.30;99.90;;;;;;4975010;28;20019;-76
2022/06/28 07:29:06;;;;;;;1.25;0.40;;;17.50;99.90;;;;;;4973670;28;20027;-80
2022/06/28 07:31:32;;;;;;;5.00;0.52;;;17.80;99.90;;;;;;4957021;28;20034;-77
2022/06/28 07:33:58;;;;;;;4.50;0.50;;;18.00;99.90;;;;;;4974745;28;20121;-76
2022/06/28 07:36:24;;;;;;;2.33;0.63;;;18.10;99.90;;;;;;4981935;28;20081;-77
2022/06/28 07:38:50;;;;;;;4.45;0.85;;;18.30;99.90;;;;;;4974667;28;20039;-77
2022/06/28 07:41:16;;;;;;;3.15;0.43;;;18.20;99.90;;;;;;4975195;28;20023;-76
2022/06/28 07:43:43;;;;;;;4.53;0.60;;;18.10;99.90;;;;;;4974664;28;20530;-77
2022/06/28 07:46:08;;;;;;;5.50;0.50;;;17.70;99.90;;;;;;4975090;28;20124;-77
2022/06/28 07:48:34;;;;;;;2.35;0.43;;;17.50;99.90;;;;;;4974895;28;20056;-77
2022/06/28 07:53:44;;;;;;;2.20;0.40;;;17.20;99.90;;;;;;4969061;28;20034;-76
2022/06/28 07:58:53;;;;;;;4.40;0.65;;;17.00;99.90;;;;;;4973969;28;20417;-79
2022/06/28 08:01:19;;;;;;;6.15;1.10;;;17.10;99.90;;;;;;4974460;28;20031;-80
2022/06/28 08:03:45;;;;;;;4.55;0.60;;;17.10;99.90;;;;;;4974263;28;20395;-79
2022/06/28 08:06:11;;;;;;;1.90;0.50;;;17.20;99.90;;;;;;4974305;28;20027;-78
2022/06/28 08:08:36;;;;;;;1.30;0.80;;;17.20;99.90;;;;;;4992914;28;20018;-79
2022/06/28 08:11:03;;;;;;;3.13;0.50;;;17.40;99.90;;;;;;4993885;28;20109;-79
2022/06/28 08:13:28;;;;;;;2.17;0.30;;;17.50;99.90;;;;;;4993633;28;20029;-79
2022/06/28 08:15:54;;;;;;;1.73;0.30;;;17.60;98.70;;;;;;4993319;28;20018;-79
2022/06/28 08:18:20;;;;;;;2.50;0.40;;;17.70;98.70;;;;;;4993681;28;20023;-79
2022/06/28 08:20:46;;;;;;;3.20;0.40;;;17.90;94.60;;;;;;4993372;28;20459;-79
2022/06/28 08:23:12;;;;;;;2.60;0.43;;;18.20;90.50;;;;;;4993366;28;20038;-79
2022/06/28 08:25:42;;;;;;;4.03;0.40;;;18.70;91.60;;;;;;4992637;28;20026;-79
2022/06/28 08:28:09;;;;;;;2.88;0.30;;;19.10;87.80;;;;;;4993210;28;20113;-79
2022/06/28 08:30:35;;;;;;;5.70;0.35;;;19.30;86.50;;;;;;4993856;28;20383;-79
2022/06/28 08:33:00;;;;;;;5.70;0.43;;;19.10;77.00;;;;;;4993250;28;20025;-79
2022/06/28 08:35:26;;;;;;;3.95;1.00;;;19.10;86.40;;;;;;4993123;28;20088;-79
2022/06/28 08:37:52;;;;;;;2.88;0.38;;;19.20;80.90;;;;;;4992990;28;20058;-79
2022/06/28 08:40:21;;;;;;;0.73;0.25;;;19.20;88.80;;;;;;4993154;28;20463;-79
2022/06/28 08:42:54;;;;;;;0.43;0.10;;;19.40;86.90;;;;;;4986293;28;20037;-80
2022/06/28 08:45:21;;;;;;;1.55;0.25;;;20.20;82.50;;;;;;4992569;28;20085;-78
2022/06/28 08:47:53;;;;;;;2.65;0.30;;;20.50;76.20;;;;;;4975192;28;20022;-79
2022/06/28 08:50:38;;;;;;;2.25;0.40;;;20.40;75.80;;;;;;4992633;28;20360;-79
2022/06/28 08:53:06;;;;;;;1.15;0.40;;;21.60;72.90;;;;;;4988168;28;20755;-79
2022/06/28 08:55:33;;;;;;;1.52;0.22;;;23.10;66.40;;;;;;4986271;28;20423;-79
2022/06/28 08:58:01;;;;;;;2.35;0.40;;;23.80;63.40;;;;;;5010225;23;20088;-77
2022/06/28 09:00:27;;;;;;;2.15;0.28;;;24.60;59.60;;;;;;4991520;28;20106;-78
2022/06/28 09:02:54;;;;;;;2.70;0.60;;;24.80;59.50;;;;;;4992460;28;20029;-75
2022/06/28 09:05:25;;;;;;;3.35;0.28;;;24.70;58.80;;;;;;4992424;28;20026;-78
2022/06/28 09:07:52;;;;;;;2.35;0.65;;;24.10;58.00;;;;;;4992274;28;20022;-79
2022/06/28 09:10:19;;;;;;;3.75;0.88;;;23.80;59.70;;;;;;4992435;28;20604;-77
2022/06/28 09:12:55;;;;;;;1.17;0.30;;;23.40;60.30;;;;;;4992072;28;20026;-77
2022/06/28 09:15:25;;;;;;;2.72;0.50;;;23.00;59.80;;;;;;4991764;28;20609;-78
2022/06/28 09:17:56;;;;;;;3.00;0.45;;;23.00;63.20;;;;;;4991682;28;20021;-77
2022/06/28 09:20:37;;;;;;;2.80;0.40;;;22.90;61.90;;;;;;4991932;28;20022;-78
2022/06/28 09:23:03;;;;;;;1.63;0.50;;;22.60;63.10;;;;;;4991884;28;20026;-78
2022/06/28 09:25:31;;;;;;;2.55;0.40;;;22.60;64.50;;;;;;4991998;28;20030;-78
2022/06/28 09:27:59;;;;;;;4.18;0.47;;;22.20;64.20;;;;;;4991903;28;20058;-78
2022/06/28 09:30:28;;;;;;;1.02;0.25;;;23.40;63.40;;;;;;4991218;28;20018;-78
2022/06/28 09:32:53;;;;;;;1.45;0.35;;;24.40;58.00;;;;;;4991814;28;20506;-77
2022/06/28 09:35:19;;;;;;;2.38;0.40;;;25.60;56.30;;;;;;4991644;28;20050;-78
2022/06/28 09:37:49;;;;;;;1.55;0.30;;;26.60;55.30;;;;;;4991442;28;20023;-78
2022/06/28 09:40:25;;;;;;;2.22;0.50;;;27.30;51.70;;;;;;4991805;28;20084;-77
2022/06/28 09:43:11;;;;;;;1.95;0.45;;;27.90;49.80;;;;;;4985760;28;20417;-78
2022/06/28 09:45:42;;;;;;;3.13;0.40;;;27.80;48.60;;;;;;4985732;28;20026;-78
2022/06/28 09:48:14;;;;;;;1.13;0.32;;;27.80;47.00;;;;;;4991529;28;20613;-78
2022/06/28 09:50:40;;;;;;;0.50;0.20;;;27.00;50.10;;;;;;4991302;28;20026;-77
2022/06/28 09:53:07;;;;;;;2.80;0.10;;;26.70;49.20;;;;;;4991615;28;20061;-77
2022/06/28 09:55:34;;;;;;;1.40;0.28;;;27.20;49.20;;;;;;5001146;28;20085;-77
2022/06/28 09:58:01;;;;;;;0.95;0.30;;;27.60;45.70;;;;;;4990580;28;20121;-78
2022/06/28 10:00:28;;;;;;;0.85;0.30;;;27.80;44.80;;;;;;4997304;28;20450;-77
2022/06/28 10:02:55;;;;;;;0.95;0.20;;;27.60;43.40;;;;;;4991489;28;20367;-78
2022/06/28 10:05:21;;;;;;;2.05;0.35;;;27.60;42.80;;;;;;4991124;28;20447;-78
2022/06/28 10:07:48;;;;;;;1.85;0.47;;;27.10;43.30;;;;;;4990762;28;20379;-77
2022/06/28 10:10:15;;;;;;;0.93;0.10;;;26.70;43.30;;;;;;4991521;28;20096;-78
2022/06/28 10:15:30;;;;;;;2.88;0.55;;;27.20;44.80;;;;;;4990797;28;20100;-75
2022/06/28 10:18:00;;;;;;;1.15;0.25;;;26.90;45.50;;;;;;4990834;28;20459;-75
2022/06/28 10:20:26;;;;;;;1.85;0.20;;;26.30;43.20;;;;;;4990259;28;20549;-75
2022/06/28 10:23:12;;;;;;;2.10;0.30;;;25.70;44.70;;;;;;4991083;28;20022;-77
2022/06/28 10:25:39;;;;;;;1.17;0.30;;;25.30;47.10;;;;;;4985869;28;20026;-78
2022/06/28 10:28:25;;;;;;;1.50;0.30;;;25.20;50.20;;;;;;4990694;28;20045;-77
2022/06/28 10:31:20;;;;;;;1.08;0.15;;;27.00;49.70;;;;;;4996406;28;20018;-77
2022/06/28 10:33:45;;;;;;;4.35;1.00;;;28.10;46.10;;;;;;4989438;28;20026;-78
2022/06/28 10:36:13;;;;;;;0.95;0.30;;;29.50;45.70;;;;;;4989820;28;20029;-75
2022/06/28 10:39:08;;;;;;;3.35;0.55;;;29.20;45.70;;;;;;4990961;28;20027;-76
2022/06/28 10:41:48;;;;;;;1.40;0.20;;;28.40;45.50;;;;;;4990572;28;20054;-75
2022/06/28 10:44:24;;;;;;;4.30;0.30;;;29.20;46.30;;;;;;4990405;28;20483;-75
2022/06/28 10:47:05;;;;;;;2.85;0.30;;;30.10;44.40;;;;;;4990611;28;20045;-74
2022/06/28 10:49:46;;;;;;;2.15;0.25;;;31.10;44.50;;;;;;4993981;28;20039;-75
2022/06/28 10:52:14;;;;;;;2.93;0.30;;;31.30;42.90;;;;;;4994681;28;20369;-75
2022/06/28 10:55:04;;;;;;;3.50;0.40;;;31.90;44.10;;;;;;4994854;28;20027;-75
2022/06/28 10:57:30;;;;;;;1.95;0.38;;;32.40;39.70;;;;;;4988654;28;20042;-75
2022/06/28 10:59:59;;;;;;;4.03;0.40;;;31.70;40.40;;;;;;5000660;28;20104;-75
2022/06/28 11:02:50;;;;;;;1.10;0.40;;;32.10;39.50;;;;;;4994296;28;20495;-75
2022/06/28 11:05:18;;;;;;;1.20;0.30;;;32.20;38.10;;;;;;4994270;28;20022;-75
2022/06/28 11:07:57;;;;;;;3.13;0.30;;;31.40;41.50;;;;;;4993575;28;20046;-74
2022/06/28 11:10:23;;;;;;;2.63;0.40;;;30.70;41.70;;;;;;4993911;28;20026;-74
2022/06/28 11:12:49;;;;;;;1.40;0.30;;;30.70;41.20;;;;;;4994533;28;20018;-75
2022/06/28 11:15:32;;;;;;;1.17;0.40;;;31.20;40.70;;;;;;4993744;28;20117;-76
2022/06/28 11:17:59;;;;;;;1.63;0.43;;;32.70;40.40;;;;;;4992563;28;20023;-76
2022/06/28 11:20:25;;;;;;;2.75;0.50;;;33.80;38.20;;;;;;4994362;28;20030;-76
2022/06/28 11:22:52;;;;;;;2.15;0.50;;;34.20;36.80;;;;;;4994133;28;20102;-75
2022/06/28 11:25:22;;;;;;;4.05;0.77;;;34.10;36.50;;;;;;4994134;28;20034;-75
2022/06/28 11:27:56;;;;;;;1.80;0.40;;;34.50;35.70;;;;;;4993651;28;20109;-75
2022/06/28 11:30:27;;;;;;;1.00;0.60;;;33.90;34.20;;;;;;5000141;28;20054;-76
2022/06/28 11:32:57;;;;;;;1.90;0.30;;;34.60;36.10;;;;;;4994170;28;20061;-75
2022/06/28 11:35:25;;;;;;;0.85;0.70;;;34.90;33.60;;;;;;4994112;28;20495;-76
2022/06/28 11:37:58;;;;;;;0.57;0.47;;;34.70;33.60;;;;;;4993723;28;20054;-75
2022/06/28 11:40:41;;;;;;;3.67;0.80;;;34.30;36.20;;;;;;4993465;28;20550;-75
2022/06/28 11:43:08;;;;;;;2.67;0.52;;;32.50;37.70;;;;;;4993736;28;20050;-76
2022/06/28 11:45:40;;;;;;;2.30;0.47;;;32.90;38.70;;;;;;4993619;28;20030;-75
2022/06/28 11:48:10;;;;;;;1.17;0.70;;;33.20;37.00;;;;;;4987063;28;20023;-76
2022/06/28 11:50:56;;;;;;;2.50;1.23;;;34.20;36.90;;;;;;4993806;28;20021;-75
2022/06/28 11:53:24;;;;;;;3.30;1.60;;;33.30;36.90;;;;;;4993410;28;20073;-75
2022/06/28 11:56:00;;;;;;;2.42;1.20;;;32.90;38.00;;;;;;4993596;28;20027;-75
2022/06/28 11:58:25;;;;;;;4.18;1.20;;;32.00;38.00;;;;;;4993572;28;20033;-75
2022/06/28 12:01:21;;;;;;;2.30;1.00;;;31.80;40.00;;;;;;4999516;28;20022;-75
2022/06/28 12:03:46;;;;;;;2.90;1.30;;;32.60;41.40;;;;;;4988635;28;20463;-76
2022/06/28 12:06:13;;;;;;;4.35;1.23;;;32.60;40.50;;;;;;4993294;28;20033;-76
2022/06/28 12:08:45;;;;;;;3.08;1.17;;;31.30;40.00;;;;;;4992793;28;20085;-76
2022/06/28 12:11:29;;;;;;;2.90;1.00;;;31.70;42.00;;;;;;4993131;28;20419;-76
2022/06/28 12:14:02;;;;;;;1.60;0.85;;;33.10;38.80;;;;;;4992895;28;20455;-78
2022/06/28 12:16:55;;;;;;;2.22;0.85;;;32.80;40.40;;;;;;4992919;28;20050;-78
2022/06/28 12:19:33;;;;;;;3.15;0.82;;;32.50;40.00;;;;;;4985483;28;20042;-78
2022/06/28 12:22:17;;;;;;;1.60;0.40;;;32.10;41.00;;;;;;4992863;28;20062;-78
2022/06/28 12:24:46;;;;;;;1.10;0.50;;;32.00;40.70;;;;;;4988125;28;20178;-79
2022/06/28 12:27:23;;;;;;;1.75;0.40;;;32.60;42.80;;;;;;4986480;28;20030;-79
2022/06/28 12:29:50;;;;;;;2.72;0.50;;;33.40;39.10;;;;;;4996816;28;20029;-78
2022/06/28 12:32:17;;;;;;;1.90;0.63;;;34.50;38.50;;;;;;4997942;28;20029;-78
2022/06/28 12:34:42;;;;;;;2.35;0.60;;;35.00;37.30;;;;;;4992597;28;20030;-78
2022/06/28 12:37:09;;;;;;;1.05;0.50;;;35.90;36.00;;;;;;4985946;28;20033;-79
2022/06/28 12:39:35;;;;;;;0.85;0.32;;;35.80;35.20;;;;;;4992824;28;20499;-78
2022/06/28 12:42:01;;;;;;;1.63;0.35;;;35.70;36.00;;;;;;4992220;28;20077;-78
2022/06/28 12:44:27;;;;;;;2.35;0.60;;;35.20;37.10;;;;;;4992830;28;20023;-75
2022/06/28 12:46:53;;;;;;;1.13;0.40;;;35.10;37.00;;;;;;4991943;28;20104;-75
2022/06/28 12:49:20;;;;;;;10.40;4.95;;;34.50;36.70;;;;;;4991972;28;20054;-75
2022/06/28 12:51:46;;;;;;;8.80;4.28;;;35.70;36.40;;;;;;4992798;28;20029;-75
2022/06/28 12:54:12;;;;;;;4.80;1.63;;;35.60;35.50;;;;;;4992012;28;20113;-75
2022/06/28 12:59:10;;;;;;;3.95;1.10;;;36.30;34.80;;;;;;5048862;28;20041;-79
2022/06/28 13:01:36;;;;;;;3.25;0.65;;;36.20;36.00;;;;;;5051711;28;20021;-79
2022/06/28 13:04:02;;;;;;;3.42;1.00;;;36.40;36.00;;;;;;5051431;28;20401;-81
2022/06/28 13:06:29;;;;;;;1.48;0.32;;;36.20;35.10;;;;;;5051767;28;20543;-79
2022/06/28 13:08:55;;;;;;;1.75;0.30;;;35.80;36.00;;;;;;5031307;28;20018;-79
2022/06/28 13:11:22;;;;;;;3.42;0.82;;;36.10;35.50;;;;;;5030851;28;20100;-79
2022/06/28 13:13:49;;;;;;;3.92;1.35;;;35.40;36.00;;;;;;5031104;28;20475;-79
2022/06/28 13:16:15;;;;;;;2.55;0.45;;;36.00;36.30;;;;;;5024958;28;20100;-80